Time;durP1;ratioP1;P1;durP2;ratioP2;P2;SDS_P1;SDS_P2;PMS_P1;PMS_P2;Temp;Humidity;BMP_temperature;BMP_pressure;BME280_temperature;BME280_humidity;BME280_pressure;Samples;Min_cycle;Max_cycle;Signal;HPM_P1;HPM_P2
2021/01/09 00:01:43;;;;;;;1.35;0.75;;;;;;;1.88;80.06;94326.91;4183237;28;20060;-70
2021/01/09 00:03:45;;;;;;;1.25;0.80;;;;;;;1.90;79.71;94319.03;4190250;28;20118;-69
2021/01/09 00:05:46;;;;;;;1.10;0.60;;;;;;;1.97;79.65;94323.59;4190299;28;20041;-71
2021/01/09 00:07:47;;;;;;;1.75;0.95;;;;;;;2.01;79.03;94319.03;4192437;28;20102;-69
2021/01/09 00:09:48;;;;;;;1.40;0.80;;;;;;;2.02;79.38;94320.66;4190625;28;20052;-69
2021/01/09 00:11:50;;;;;;;1.77;0.80;;;;;;;1.94;79.69;94331.59;4189828;28;20091;-69
2021/01/09 00:13:51;;;;;;;1.15;0.80;;;;;;;1.89;79.88;94344.03;4190395;28;20072;-69
2021/01/09 00:15:52;;;;;;;1.60;1.10;;;;;;;1.89;80.01;94346.59;4190993;28;20523;-70
2021/01/09 00:17:53;;;;;;;1.27;0.80;;;;;;;1.83;80.09;94341.94;4191789;28;20523;-74
2021/01/09 00:19:55;;;;;;;2.72;1.55;;;;;;;1.79;80.29;94348.25;4192697;28;20041;-70
2021/01/09 00:21:57;;;;;;;3.17;1.95;;;;;;;1.73;80.38;94346.13;4191541;28;20057;-70
2021/01/09 00:23:58;;;;;;;1.48;1.00;;;;;;;1.80;81.08;94342.13;4192185;28;20589;-69
2021/01/09 00:26:00;;;;;;;1.80;0.80;;;;;;;1.91;80.24;94339.56;4191012;28;20310;-70
2021/01/09 00:28:01;;;;;;;1.92;1.20;;;;;;;1.95;80.04;94337.59;4191684;28;20114;-69
2021/01/09 00:30:04;;;;;;;1.77;1.05;;;;;;;2.06;80.15;94335.00;4206577;28;20044;-69
2021/01/09 00:32:06;;;;;;;1.73;0.90;;;;;;;2.08;79.57;94337.47;4191056;28;20345;-68
2021/01/09 00:34:07;;;;;;;1.13;0.80;;;;;;;2.13;79.68;94335.34;4192115;28;20463;-69
2021/01/09 00:36:08;;;;;;;1.20;0.80;;;;;;;2.17;79.33;94345.38;4192720;28;20450;-70
2021/01/09 00:38:10;;;;;;;1.27;0.70;;;;;;;2.13;79.35;94348.28;4193866;28;20045;-68
2021/01/09 00:40:11;;;;;;;1.65;0.80;;;;;;;2.11;79.72;94342.41;4193475;28;20481;-68
2021/01/09 00:42:13;;;;;;;1.08;0.70;;;;;;;2.20;79.30;94349.47;4193120;28;20427;-70
2021/01/09 00:44:14;;;;;;;1.08;0.73;;;;;;;2.17;79.27;94342.78;4195536;28;20053;-70
2021/01/09 00:46:16;;;;;;;2.70;0.70;;;;;;;2.18;79.08;94343.59;4194750;28;20944;-69
2021/01/09 00:48:17;;;;;;;1.30;0.73;;;;;;;2.22;79.18;94335.50;4187926;28;20075;-68
2021/01/09 00:50:19;;;;;;;1.20;0.73;;;;;;;2.19;79.29;94334.91;4209428;28;20055;-69
2021/01/09 00:52:20;;;;;;;1.23;0.80;;;;;;;2.24;78.97;94337.97;4167393;28;20090;-71
2021/01/09 00:54:21;;;;;;;1.42;0.80;;;;;;;2.25;78.96;94337.00;4189500;28;20056;-69
2021/01/09 00:56:22;;;;;;;1.40;0.80;;;;;;;2.16;79.25;94341.13;4193678;28;20136;-68
2021/01/09 00:58:24;;;;;;;1.27;0.77;;;;;;;2.01;79.55;94348.28;4192804;28;20231;-69
2021/01/09 01:00:25;;;;;;;1.08;0.70;;;;;;;2.04;79.59;94358.41;4189317;28;20049;-69
2021/01/09 01:02:26;;;;;;;1.08;0.70;;;;;;;2.15;79.65;94359.31;4191829;28;20096;-69
2021/01/09 01:04:27;;;;;;;2.53;0.82;;;;;;;2.03;79.39;94351.56;4182863;28;20101;-69
2021/01/09 01:06:28;;;;;;;1.60;1.00;;;;;;;2.12;79.77;94359.56;4187415;28;20052;-69
2021/01/09 01:08:30;;;;;;;1.77;0.98;;;;;;;2.08;79.66;94361.56;4186830;28;20056;-70
2021/01/09 01:10:31;;;;;;;1.48;0.90;;;;;;;2.11;79.51;94363.06;4198098;28;20052;-70
2021/01/09 01:12:32;;;;;;;1.40;0.80;;;;;;;2.17;79.51;94355.72;4178549;28;20060;-69
2021/01/09 01:14:33;;;;;;;1.20;0.80;;;;;;;2.18;79.33;94367.69;4191942;28;20126;-69
2021/01/09 01:16:36;;;;;;;1.30;0.80;;;;;;;2.18;79.24;94353.94;4184142;28;20122;-69
2021/01/09 01:18:38;;;;;;;1.60;1.00;;;;;;;2.23;79.26;94351.81;4191020;28;20057;-71
2021/01/09 01:20:39;;;;;;;1.70;0.93;;;;;;;2.30;79.22;94352.16;4187923;28;20053;-73
2021/01/09 01:22:40;;;;;;;1.30;0.77;;;;;;;2.34;78.61;94346.63;4191707;28;20319;-69
2021/01/09 01:24:41;;;;;;;3.05;0.80;;;;;;;2.38;78.35;94340.28;4186986;28;20044;-69
2021/01/09 01:26:42;;;;;;;2.35;1.00;;;;;;;2.37;78.71;94356.75;4188748;28;20053;-69
2021/01/09 01:28:43;;;;;;;1.55;0.85;;;;;;;2.31;78.60;94354.66;4193263;28;20064;-71
2021/01/09 01:30:48;;;;;;;1.15;0.80;;;;;;;2.38;78.63;94355.81;4194781;28;20263;-69
2021/01/09 01:32:50;;;;;;;1.40;0.70;;;;;;;2.34;78.20;94341.47;4194218;28;20052;-68
2021/01/09 01:34:51;;;;;;;1.10;0.73;;;;;;;2.31;78.47;94349.47;4180487;28;20051;-70
2021/01/09 01:36:52;;;;;;;2.30;1.00;;;;;;;2.21;78.73;94358.88;4182581;28;20051;-70
2021/01/09 01:38:54;;;;;;;1.27;0.80;;;;;;;2.23;79.18;94346.66;4185889;28;20049;-68
2021/01/09 01:41:05;;;;;;;2.05;0.80;;;;;;;2.29;78.66;94348.78;4177772;28;20144;-68
2021/01/09 01:43:10;;;;;;;1.27;0.90;;;;;;;2.27;78.08;94342.88;4189643;28;20052;-69
2021/01/09 01:45:12;;;;;;;2.22;0.80;;;;;;;2.31;78.68;94341.72;4194098;28;20046;-69
2021/01/09 01:47:17;;;;;;;2.35;0.90;;;;;;;2.30;78.59;94352.16;4192845;28;20102;-69
2021/01/09 01:49:18;;;;;;;1.35;0.90;;;;;;;2.31;78.85;94346.88;4204919;28;20060;-68
2021/01/09 01:51:20;;;;;;;1.70;0.77;;;;;;;2.30;78.22;94359.91;4206451;28;20369;-68
2021/01/09 01:53:21;;;;;;;1.38;0.95;;;;;;;2.28;78.92;94354.03;4177012;28;20045;-68
2021/01/09 01:55:22;;;;;;;1.58;0.90;;;;;;;2.27;79.00;94348.06;4191237;28;20055;-69
2021/01/09 01:57:24;;;;;;;1.83;1.00;;;;;;;2.25;79.04;94345.59;4192361;28;20146;-69
2021/01/09 01:59:25;;;;;;;1.70;1.02;;;;;;;2.31;79.02;94339.13;4193990;28;20136;-70
2021/01/09 02:01:26;;;;;;;2.35;1.10;;;;;;;2.40;78.71;94341.00;4187250;28;20438;-70
2021/01/09 02:03:28;;;;;;;1.90;1.35;;;;;;;2.45;78.54;94349.25;4192000;28;20071;-68
2021/01/09 02:05:37;;;;;;;2.22;1.38;;;;;;;2.43;78.27;94345.94;4185010;28;20315;-69
2021/01/09 02:07:41;;;;;;;1.75;1.10;;;;;;;2.36;77.76;94347.34;4191010;28;20052;-69
2021/01/09 02:09:44;;;;;;;1.60;0.90;;;;;;;2.36;78.61;94360.28;4186043;28;20388;-68
2021/01/09 02:12:00;;;;;;;1.27;0.90;;;;;;;2.33;78.37;94363.09;4191670;28;20075;-70
2021/01/09 02:14:02;;;;;;;1.67;0.82;;;;;;;2.34;78.16;94356.97;4189981;28;20048;-69
2021/01/09 02:16:04;;;;;;;2.00;1.33;;;;;;;2.39;78.60;94351.47;4192899;28;20048;-69
2021/01/09 02:18:07;;;;;;;1.65;1.05;;;;;;;2.42;78.04;94356.41;4183295;28;20075;-71
2021/01/09 02:20:08;;;;;;;1.17;0.90;;;;;;;2.34;78.36;94354.41;4205059;28;20086;-68
2021/01/09 02:22:14;;;;;;;1.88;1.02;;;;;;;2.34;77.72;94356.97;4187946;28;20052;-69
2021/01/09 02:24:20;;;;;;;2.83;1.30;;;;;;;2.29;78.32;94355.72;4191720;28;20288;-69
2021/01/09 02:26:21;;;;;;;1.98;1.00;;;;;;;2.20;77.69;94355.47;4175252;28;20507;-68
2021/01/09 02:28:22;;;;;;;2.40;1.25;;;;;;;2.20;78.46;94357.22;4191818;28;20406;-69
2021/01/09 02:30:30;;;;;;;1.98;1.10;;;;;;;2.10;78.57;94353.69;4193049;28;20060;-69
2021/01/09 02:32:41;;;;;;;1.77;0.88;;;;;;;2.09;78.83;94354.63;4184788;28;20064;-69
2021/01/09 02:34:55;;;;;;;1.40;1.00;;;;;;;2.18;78.68;94348.78;4188260;28;20046;-68
2021/01/09 02:36:57;;;;;;;1.38;0.95;;;;;;;2.13;78.77;94350.88;4192005;28;20106;-70
2021/01/09 02:38:59;;;;;;;2.20;1.00;;;;;;;2.15;78.49;94344.66;4192638;28;20041;-70
2021/01/09 02:41:03;;;;;;;1.25;0.82;;;;;;;2.18;78.42;94341.03;4175059;28;20134;-70
2021/01/09 02:43:04;;;;;;;1.55;0.90;;;;;;;2.23;78.78;94350.03;4191654;28;20052;-69
2021/01/09 02:45:06;;;;;;;1.60;1.10;;;;;;;2.29;78.64;94361.69;4192621;28;20041;-70
2021/01/09 02:47:07;;;;;;;1.88;1.23;;;;;;;2.25;78.37;94365.44;4189108;28;20066;-70
2021/01/09 02:49:08;;;;;;;1.38;0.90;;;;;;;2.17;78.52;94363.47;4192782;28;20049;-70
2021/01/09 02:51:10;;;;;;;1.38;0.98;;;;;;;2.27;78.51;94353.22;4185942;28;20118;-69
2021/01/09 02:53:11;;;;;;;1.40;0.88;;;;;;;2.35;78.39;94340.53;4192604;28;20048;-69
2021/01/09 02:55:13;;;;;;;3.15;1.40;;;;;;;2.37;78.14;94345.59;4207787;28;20084;-69
2021/01/09 02:57:14;;;;;;;1.90;1.20;;;;;;;2.40;77.94;94353.13;4191493;28;20052;-69
2021/01/09 02:59:15;;;;;;;2.72;1.05;;;;;;;2.41;77.63;94363.34;4192935;28;20056;-69
2021/01/09 03:01:16;;;;;;;1.75;1.33;;;;;;;2.33;77.69;94360.53;4192565;28;20126;-69
2021/01/09 03:03:18;;;;;;;1.50;0.90;;;;;;;2.33;77.54;94357.94;4184430;28;20064;-70
2021/01/09 03:05:19;;;;;;;1.83;0.88;;;;;;;2.27;78.51;94360.16;4192098;28;20791;-69
2021/01/09 03:07:20;;;;;;;1.80;1.00;;;;;;;2.23;77.81;94351.81;4186149;28;20102;-69
2021/01/09 03:09:21;;;;;;;1.58;1.05;;;;;;;2.24;78.01;94356.06;4191822;28;20093;-68
2021/01/09 03:11:23;;;;;;;1.88;0.70;;;;;;;2.23;77.80;94357.81;4191373;28;20119;-69
2021/01/09 03:13:24;;;;;;;2.05;1.02;;;;;;;2.13;78.17;94358.63;4176526;28;20059;-70
2021/01/09 03:15:25;;;;;;;1.40;1.00;;;;;;;2.17;78.26;94357.44;4193777;28;20109;-70
2021/01/09 03:17:26;;;;;;;1.50;0.93;;;;;;;2.20;78.41;94360.63;4187043;28;20053;-70
2021/01/09 03:19:27;;;;;;;1.65;0.80;;;;;;;2.20;77.67;94362.41;4173614;28;20049;-69
2021/01/09 03:21:29;;;;;;;1.42;0.80;;;;;;;2.16;78.11;94364.38;4158657;28;20151;-69
2021/01/09 03:23:30;;;;;;;1.10;0.80;;;;;;;2.18;78.34;94366.88;4203712;28;20048;-68
2021/01/09 03:25:31;;;;;;;1.48;0.82;;;;;;;2.21;77.80;94361.44;4191176;28;20127;-70
2021/01/09 03:27:32;;;;;;;1.10;0.70;;;;;;;2.16;77.43;94358.41;4191434;28;20493;-70
2021/01/09 03:29:33;;;;;;;1.02;0.70;;;;;;;2.16;77.95;94363.56;4192537;28;20064;-70
2021/01/09 03:31:36;;;;;;;1.60;0.90;;;;;;;2.19;77.85;94360.75;4191885;28;20462;-69
2021/01/09 03:33:37;;;;;;;2.72;1.08;;;;;;;2.17;78.06;94362.63;4192500;28;20101;-69
2021/01/09 03:35:39;;;;;;;1.75;1.20;;;;;;;2.22;78.22;94371.69;4191506;28;20517;-68
2021/01/09 03:37:40;;;;;;;1.65;1.00;;;;;;;2.27;77.97;94360.97;4191413;28;20478;-76
2021/01/09 03:39:41;;;;;;;1.30;0.85;;;;;;;2.24;77.77;94368.97;4193126;28;20053;-78
2021/01/09 03:41:42;;;;;;;1.45;0.80;;;;;;;2.23;77.27;94370.72;4190647;28;20053;-77
2021/01/09 03:43:44;;;;;;;1.42;1.10;;;;;;;2.19;77.69;94374.47;4191037;28;20048;-80
2021/01/09 03:45:45;;;;;;;1.30;0.90;;;;;;;2.18;77.82;94374.63;4190478;28;20052;-77
2021/01/09 03:47:46;;;;;;;1.60;1.00;;;;;;;2.18;77.67;94374.63;4193226;28;20533;-78
2021/01/09 03:49:47;;;;;;;1.95;1.08;;;;;;;2.13;77.17;94384.47;4190575;28;20067;-76
2021/01/09 03:51:48;;;;;;;1.42;0.95;;;;;;;1.95;77.07;94384.09;4205468;28;20101;-79
2021/01/09 03:53:51;;;;;;;1.50;0.98;;;;;;;2.00;77.45;94394.88;4191726;28;20536;-78
2021/01/09 03:55:52;;;;;;;1.13;0.93;;;;;;;1.98;77.17;94389.84;4192269;28;20045;-77
2021/01/09 03:57:53;;;;;;;1.00;0.80;;;;;;;1.90;76.82;94387.00;4189576;28;20767;-75
2021/01/09 03:59:54;;;;;;;1.23;0.82;;;;;;;1.88;77.27;94383.72;4192339;28;20048;-78
2021/01/09 04:01:55;;;;;;;2.50;1.00;;;;;;;1.75;77.44;94385.56;4186776;28;20556;-77
2021/01/09 04:03:57;;;;;;;2.15;1.00;;;;;;;1.70;78.30;94393.66;4190999;28;20079;-76
2021/01/09 04:05:58;;;;;;;2.03;1.23;;;;;;;1.76;78.06;94397.53;4191523;28;20052;-77
2021/01/09 04:07:59;;;;;;;1.40;0.98;;;;;;;1.77;77.76;94396.63;4205544;28;20056;-78
2021/01/09 04:10:01;;;;;;;2.25;0.90;;;;;;;1.76;77.48;94403.53;4191168;28;20198;-78
2021/01/09 04:12:03;;;;;;;1.83;1.00;;;;;;;1.83;77.18;94407.31;4194581;28;20455;-77
2021/01/09 04:14:04;;;;;;;1.70;1.00;;;;;;;1.88;77.60;94412.13;4196321;28;20052;-78
2021/01/09 04:16:05;;;;;;;2.47;1.20;;;;;;;1.89;77.47;94407.78;4193105;28;20478;-79
2021/01/09 04:18:07;;;;;;;1.50;0.90;;;;;;;1.95;77.36;94415.91;4192908;28;20041;-77
2021/01/09 04:20:08;;;;;;;1.58;0.93;;;;;;;1.96;76.95;94416.75;4194593;28;20048;-78
2021/01/09 04:22:10;;;;;;;2.70;1.05;;;;;;;2.09;77.07;94419.22;4193811;28;20689;-78
2021/01/09 04:24:12;;;;;;;1.77;1.15;;;;;;;2.14;76.28;94417.13;4195600;28;20048;-78
2021/01/09 04:26:15;;;;;;;1.48;1.10;;;;;;;2.13;75.56;94418.06;4194378;28;20646;-77
2021/01/09 04:28:16;;;;;;;3.35;1.02;;;;;;;2.16;75.86;94417.84;4191546;28;20386;-78
2021/01/09 04:30:18;;;;;;;1.98;1.20;;;;;;;2.17;76.10;94427.22;4195201;28;20427;-70
2021/01/09 04:32:19;;;;;;;1.70;1.00;;;;;;;2.11;75.58;94425.09;4194005;28;20102;-67
2021/01/09 04:34:22;;;;;;;2.50;1.33;;;;;;;2.13;75.96;94426.66;4195298;28;20092;-69
2021/01/09 04:36:23;;;;;;;1.90;1.20;;;;;;;2.18;76.28;94428.88;4194108;28;20090;-69
2021/01/09 04:38:24;;;;;;;2.08;1.25;;;;;;;2.18;75.51;94431.47;4193979;28;20058;-70
2021/01/09 04:40:25;;;;;;;1.90;1.10;;;;;;;2.12;75.58;94431.91;4194103;28;20052;-71
2021/01/09 04:42:26;;;;;;;2.33;1.13;;;;;;;2.05;75.97;94432.38;4193115;28;20052;-69
2021/01/09 04:44:28;;;;;;;1.70;1.20;;;;;;;2.06;76.03;94428.03;4193970;28;20151;-69
2021/01/09 04:46:31;;;;;;;2.17;1.40;;;;;;;2.15;76.10;94429.09;4193875;28;20245;-68
2021/01/09 04:48:32;;;;;;;2.28;1.40;;;;;;;2.14;75.63;94440.38;4210612;28;20078;-70
2021/01/09 04:50:34;;;;;;;1.50;1.10;;;;;;;2.05;75.70;94450.47;4176232;28;20052;-69
2021/01/09 04:52:37;;;;;;;2.78;1.50;;;;;;;2.03;76.10;94454.09;4183381;28;20052;-70
2021/01/09 04:54:39;;;;;;;2.73;1.50;;;;;;;2.04;75.97;94450.56;4175782;28;20364;-69
2021/01/09 04:56:43;;;;;;;3.95;1.42;;;;;;;2.01;76.28;94455.97;4192032;28;20055;-68
2021/01/09 04:58:44;;;;;;;1.77;1.20;;;;;;;1.86;75.89;94445.00;4176658;28;20048;-72
2021/01/09 05:00:47;;;;;;;2.70;2.30;;;;;;;1.89;76.48;94442.19;4193735;28;20057;-69
2021/01/09 05:02:49;;;;;;;2.47;1.80;;;;;;;1.90;76.62;94443.84;4190546;28;20387;-69
2021/01/09 05:04:50;;;;;;;2.28;1.42;;;;;;;1.87;76.33;94463.91;4192417;28;20143;-70
2021/01/09 05:06:52;;;;;;;2.75;1.85;;;;;;;1.82;76.91;94456.50;4192628;28;20044;-69
2021/01/09 05:08:53;;;;;;;2.65;1.52;;;;;;;1.90;76.23;94455.94;4196236;28;20083;-77
2021/01/09 05:10:54;;;;;;;2.83;1.70;;;;;;;1.83;76.04;94456.38;4177459;28;20342;-78
2021/01/09 05:12:56;;;;;;;2.75;1.80;;;;;;;1.84;76.41;94465.78;4212946;28;20105;-78
2021/01/09 05:14:58;;;;;;;2.50;1.70;;;;;;;1.88;76.74;94474.13;4197501;28;20111;-79
2021/01/09 05:17:01;;;;;;;2.40;1.30;;;;;;;1.90;75.78;94471.44;4187013;28;20695;-80
2021/01/09 05:19:04;;;;;;;2.33;1.35;;;;;;;1.90;76.34;94474.84;4186989;28;20059;-79
2021/01/09 05:21:05;;;;;;;3.13;1.85;;;;;;;1.80;76.54;94474.69;4191695;28;20052;-70
2021/01/09 05:23:07;;;;;;;4.40;2.90;;;;;;;1.82;76.17;94484.91;4190730;28;20087;-68
2021/01/09 05:25:08;;;;;;;5.05;2.80;;;;;;;1.80;76.26;94481.59;4195927;28;20514;-70
2021/01/09 05:27:11;;;;;;;2.78;1.75;;;;;;;1.74;76.51;94480.31;4187194;28;20045;-69
2021/01/09 05:29:15;;;;;;;4.32;2.38;;;;;;;1.80;76.73;94484.19;4203054;28;20112;-69
2021/01/09 05:31:17;;;;;;;3.07;2.20;;;;;;;1.81;76.47;94493.59;4192010;28;20106;-69
2021/01/09 05:33:21;;;;;;;3.65;2.35;;;;;;;1.88;76.66;94486.22;4194124;28;20072;-71
2021/01/09 05:35:22;;;;;;;2.53;1.92;;;;;;;1.89;76.15;94493.03;4187008;28;20106;-67
2021/01/09 05:37:25;;;;;;;3.47;2.20;;;;;;;1.90;76.54;94503.25;4190410;28;20056;-69
2021/01/09 05:39:27;;;;;;;4.55;2.30;;;;;;;1.91;76.28;94502.31;4190979;28;20518;-70
2021/01/09 05:41:28;;;;;;;3.17;2.20;;;;;;;1.90;76.30;94499.88;4193583;28;20380;-69
2021/01/09 05:43:29;;;;;;;2.53;1.60;;;;;;;1.87;76.14;94510.41;4185318;28;20049;-71
2021/01/09 05:45:32;;;;;;;2.30;1.58;;;;;;;1.83;76.08;94520.16;4193579;28;20044;-69
2021/01/09 05:47:36;;;;;;;2.63;1.48;;;;;;;1.79;76.69;94518.72;4185214;28;20052;-69
2021/01/09 05:49:42;;;;;;;1.80;1.50;;;;;;;1.83;76.06;94515.81;4175850;28;20116;-69
2021/01/09 05:51:43;;;;;;;2.55;1.52;;;;;;;1.86;76.42;94514.75;4189109;28;20044;-70
2021/01/09 05:53:45;;;;;;;2.60;1.77;;;;;;;1.91;76.18;94522.97;4189308;28;20047;-69
2021/01/09 05:55:47;;;;;;;3.25;1.60;;;;;;;1.91;76.08;94528.16;4191732;28;20048;-70
2021/01/09 05:57:50;;;;;;;3.40;1.90;;;;;;;1.80;75.96;94530.69;4192205;28;20051;-70
2021/01/09 05:59:52;;;;;;;2.55;1.70;;;;;;;1.83;75.82;94533.06;4191533;28;20057;-69
2021/01/09 06:01:57;;;;;;;3.92;1.90;;;;;;;1.77;76.07;94533.50;4192468;28;20485;-69
2021/01/09 06:04:07;;;;;;;2.63;1.80;;;;;;;1.73;75.33;94532.88;4191923;28;20127;-69
2021/01/09 06:06:22;;;;;;;3.65;1.70;;;;;;;1.77;75.23;94523.16;4183554;28;20557;-68
2021/01/09 06:08:28;;;;;;;2.63;1.73;;;;;;;1.83;75.43;94525.31;4185652;28;20138;-67
2021/01/09 06:10:29;;;;;;;3.45;2.05;;;;;;;1.88;75.66;94519.81;4191963;28;20052;-77
2021/01/09 06:12:35;;;;;;;2.33;1.73;;;;;;;1.89;74.99;94524.84;4185158;28;20064;-77
2021/01/09 06:14:41;;;;;;;6.50;4.18;;;;;;;1.78;75.86;94524.81;4192217;28;20458;-77
2021/01/09 06:16:44;;;;;;;2.92;1.73;;;;;;;1.74;75.59;94525.94;4186802;28;20225;-80
2021/01/09 06:18:45;;;;;;;3.25;1.83;;;;;;;1.81;75.56;94532.34;4192518;28;20056;-78
2021/01/09 06:20:47;;;;;;;3.25;2.00;;;;;;;1.89;75.55;94530.00;4187231;28;20151;-77
2021/01/09 06:23:07;;;;;;;3.10;2.17;;;;;;;1.88;75.64;94537.91;4191300;28;20048;-80
2021/01/09 06:25:10;;;;;;;4.10;2.35;;;;;;;1.81;76.14;94540.09;4191255;28;20420;-77
2021/01/09 06:27:18;;;;;;;3.55;2.13;;;;;;;1.83;75.53;94546.78;4191744;28;20094;-77
2021/01/09 06:29:23;;;;;;;3.40;2.03;;;;;;;1.95;75.55;94541.69;4191996;28;20083;-79
2021/01/09 06:31:28;;;;;;;3.20;2.17;;;;;;;1.94;75.40;94551.19;4192859;28;20068;-79
2021/01/09 06:33:32;;;;;;;3.22;2.30;;;;;;;1.91;76.17;94564.31;4188992;28;20051;-80
2021/01/09 06:35:35;;;;;;;3.83;2.38;;;;;;;1.89;76.00;94568.75;4188861;28;20044;-77
2021/01/09 06:37:39;;;;;;;4.18;2.70;;;;;;;1.92;75.90;94571.16;4183757;28;20056;-78
2021/01/09 06:39:41;;;;;;;3.50;2.33;;;;;;;1.98;75.97;94582.78;4192279;28;20477;-79
2021/01/09 06:41:42;;;;;;;3.80;2.72;;;;;;;1.99;76.44;94585.25;4192262;28;20048;-78
2021/01/09 06:43:52;;;;;;;3.35;2.45;;;;;;;1.96;76.66;94590.66;4191470;28;20058;-78
2021/01/09 06:45:53;;;;;;;3.92;2.65;;;;;;;1.86;76.52;94594.00;4191942;28;20095;-77
2021/01/09 06:48:04;;;;;;;5.65;2.55;;;;;;;1.90;76.93;94604.00;4208146;28;20044;-78
2021/01/09 06:50:18;;;;;;;4.65;2.70;;;;;;;1.82;76.86;94607.13;4192395;28;20054;-77
2021/01/09 06:52:19;;;;;;;5.05;3.25;;;;;;;1.84;77.33;94617.34;4191565;28;20052;-78
2021/01/09 06:54:43;;;;;;;3.53;2.85;;;;;;;1.87;76.78;94614.53;4189994;28;20047;-77
2021/01/09 06:56:49;;;;;;;3.65;2.60;;;;;;;1.81;76.91;94625.34;4191603;28;20262;-76
2021/01/09 06:58:51;;;;;;;3.92;2.85;;;;;;;1.89;77.09;94628.19;4193075;28;20133;-78
2021/01/09 07:00:52;;;;;;;3.38;2.50;;;;;;;1.92;76.66;94625.41;4190434;28;20060;-78
2021/01/09 07:03:12;;;;;;;5.10;2.97;;;;;;;1.90;76.51;94631.59;4207973;28;20052;-78
2021/01/09 07:05:20;;;;;;;4.60;2.80;;;;;;;1.79;76.60;94632.38;4196006;28;20060;-79
2021/01/09 07:07:26;;;;;;;4.00;3.10;;;;;;;1.80;76.80;94639.16;4191178;28;20088;-69
2021/01/09 07:09:29;;;;;;;4.80;3.45;;;;;;;1.87;77.07;94637.78;4192251;28;20054;-70
2021/01/09 07:11:30;;;;;;;4.43;3.22;;;;;;;1.90;76.11;94640.19;4174596;28;20128;-69
2021/01/09 07:13:32;;;;;;;7.80;3.80;;;;;;;2.01;76.32;94642.81;4180280;28;20373;-69
2021/01/09 07:15:36;;;;;;;5.45;3.85;;;;;;;2.03;76.35;94650.47;4189080;28;20398;-79
2021/01/09 07:17:41;;;;;;;5.63;3.13;;;;;;;2.12;75.79;94656.75;4187267;28;20064;-76
2021/01/09 07:19:43;;;;;;;7.25;3.80;;;;;;;1.94;76.22;94661.47;4186145;28;20048;-69
2021/01/09 07:21:47;;;;;;;6.53;3.60;;;;;;;1.97;76.44;94662.06;4203012;28;20129;-69
2021/01/09 07:23:52;;;;;;;6.80;4.30;;;;;;;1.90;77.03;94675.53;4163802;28;20154;-69
2021/01/09 07:25:54;;;;;;;5.57;4.00;;;;;;;2.00;76.93;94673.94;4186496;28;20048;-70
2021/01/09 07:27:58;;;;;;;5.93;3.78;;;;;;;1.95;77.27;94673.44;4191377;28;20067;-69
2021/01/09 07:30:06;;;;;;;5.72;3.85;;;;;;;1.78;77.71;94677.19;4190058;28;20062;-69
2021/01/09 07:32:07;;;;;;;5.88;4.38;;;;;;;1.88;77.88;94687.72;4187522;28;20665;-70
2021/01/09 07:34:12;;;;;;;8.38;4.78;;;;;;;1.94;77.45;94687.31;4186692;28;20094;-70
2021/01/09 07:36:14;;;;;;;8.10;5.70;;;;;;;2.13;77.18;94702.31;4186381;28;20427;-70
2021/01/09 07:38:15;;;;;;;6.20;4.55;;;;;;;2.20;76.30;94703.56;4206480;28;20517;-71
2021/01/09 07:40:21;;;;;;;5.93;4.53;;;;;;;2.16;76.41;94704.69;4173921;28;20052;-71
2021/01/09 07:42:30;;;;;;;7.68;5.40;;;;;;;2.12;77.12;94700.69;4188527;28;20118;-68
2021/01/09 07:44:34;;;;;;;7.72;5.20;;;;;;;2.08;76.46;94701.81;4177960;28;20148;-70
2021/01/09 07:46:56;;;;;;;6.57;4.97;;;;;;;2.13;77.01;94710.06;4175887;28;20041;-70
2021/01/09 07:49:03;;;;;;;6.63;4.20;;;;;;;2.03;76.60;94705.56;4191726;28;20084;-69
2021/01/09 07:51:04;;;;;;;5.63;4.07;;;;;;;2.18;76.92;94708.00;4191235;28;20076;-70
2021/01/09 07:53:06;;;;;;;5.97;4.38;;;;;;;2.11;76.35;94704.19;4190333;28;20111;-68
2021/01/09 07:55:09;;;;;;;6.20;4.63;;;;;;;2.20;76.24;94706.97;4186510;28;20105;-71
2021/01/09 07:57:20;;;;;;;8.48;5.88;;;;;;;2.22;76.38;94706.84;4194327;28;20095;-79
2021/01/09 07:59:22;;;;;;;6.22;4.85;;;;;;;2.15;76.15;94706.47;4186584;28;20048;-79
2021/01/09 08:01:23;;;;;;;5.55;4.00;;;;;;;2.20;76.07;94706.13;4186302;28;20071;-80
2021/01/09 08:03:24;;;;;;;5.18;3.65;;;;;;;2.27;75.73;94699.59;4192428;28;20095;-80
2021/01/09 08:05:25;;;;;;;7.47;4.80;;;;;;;2.33;75.49;94714.66;4191607;28;20048;-79
2021/01/09 08:07:27;;;;;;;7.93;4.45;;;;;;;2.34;75.65;94699.97;4191626;28;20550;-78
2021/01/09 08:09:28;;;;;;;6.60;4.97;;;;;;;2.40;75.94;94708.13;4174337;28;20412;-78
2021/01/09 08:11:45;;;;;;;7.03;4.18;;;;;;;2.39;75.63;94713.44;4190526;28;20049;-78
2021/01/09 08:13:46;;;;;;;5.90;4.43;;;;;;;2.43;75.82;94710.50;4191252;28;20048;-81
2021/01/09 08:15:48;;;;;;;6.65;4.75;;;;;;;2.50;75.51;94707.50;4192593;28;20055;-81
2021/01/09 08:17:49;;;;;;;6.65;4.93;;;;;;;2.54;75.50;94701.97;4189892;28;20448;-82
2021/01/09 08:19:50;;;;;;;12.40;5.13;;;;;;;2.61;74.93;94705.75;4193358;28;20091;-81
2021/01/09 08:21:54;;;;;;;6.10;4.90;;;;;;;2.65;74.84;94706.38;4192718;28;20053;-82
2021/01/09 08:23:55;;;;;;;7.05;5.70;;;;;;;2.69;75.09;94707.81;4197903;28;20052;-82
2021/01/09 08:25:56;;;;;;;7.03;5.32;;;;;;;2.73;74.57;94704.06;4188617;28;20410;-85
2021/01/09 08:27:59;;;;;;;5.85;4.40;;;;;;;2.70;74.51;94703.47;4190573;28;20056;-82
2021/01/09 08:30:01;;;;;;;8.75;5.10;;;;;;;2.68;74.74;94711.31;4191445;28;20060;-81
2021/01/09 08:32:11;;;;;;;5.85;4.72;;;;;;;2.70;74.55;94713.81;4189353;28;20079;-81
2021/01/09 08:34:13;;;;;;;6.93;5.88;;;;;;;2.55;74.90;94721.72;4192988;28;20088;-81
2021/01/09 08:36:15;;;;;;;10.70;6.90;;;;;;;2.52;75.00;94715.94;4199884;28;20467;-82
2021/01/09 08:38:17;;;;;;;10.90;7.65;;;;;;;2.32;75.44;94723.34;4190618;28;20545;-82
2021/01/09 08:40:19;;;;;;;12.50;6.70;;;;;;;2.44;76.07;94719.09;4193509;28;20127;-83
2021/01/09 08:42:20;;;;;;;9.85;7.15;;;;;;;2.50;75.72;94731.56;4184476;28;20056;-72
2021/01/09 08:44:22;;;;;;;11.93;6.65;;;;;;;2.53;75.37;94730.53;4192060;28;20580;-70
2021/01/09 08:46:23;;;;;;;6.35;5.00;;;;;;;2.61;75.08;94725.63;4191537;28;20045;-73
2021/01/09 08:48:29;;;;;;;6.90;5.35;;;;;;;2.61;74.56;94729.03;4191198;28;20548;-73
2021/01/09 08:50:31;;;;;;;6.60;5.20;;;;;;;2.64;74.55;94723.63;4185313;28;20075;-73
2021/01/09 08:52:34;;;;;;;6.82;5.28;;;;;;;2.52;74.38;94728.84;4188900;28;20126;-72
2021/01/09 08:54:36;;;;;;;7.57;4.97;;;;;;;2.50;74.23;94725.59;4185426;28;20376;-72
2021/01/09 08:56:37;;;;;;;7.25;5.20;;;;;;;2.28;75.28;94721.94;4186208;28;20041;-74
2021/01/09 08:58:39;;;;;;;7.80;5.25;;;;;;;2.21;75.57;94710.38;4184297;28;20055;-73
2021/01/09 09:00:41;;;;;;;6.72;4.72;;;;;;;2.18;75.82;94714.00;4193299;28;20051;-73
2021/01/09 09:02:42;;;;;;;7.95;5.38;;;;;;;2.26;76.16;94716.06;4192523;28;20492;-72
2021/01/09 09:04:45;;;;;;;8.23;5.60;;;;;;;2.56;75.10;94709.59;4193055;28;20602;-74
2021/01/09 09:06:53;;;;;;;7.83;6.03;;;;;;;2.61;74.82;94703.19;4193086;28;20396;-73
2021/01/09 09:08:55;;;;;;;8.05;6.07;;;;;;;2.75;74.12;94704.75;4190110;28;20373;-73
2021/01/09 09:10:56;;;;;;;8.13;6.30;;;;;;;2.83;74.42;94704.22;4193308;28;20055;-72
2021/01/09 09:13:17;;;;;;;8.52;5.90;;;;;;;2.73;74.82;94701.47;4194566;28;20400;-75
2021/01/09 09:15:29;;;;;;;8.15;6.07;;;;;;;2.82;74.27;94693.03;4188224;28;20048;-68
2021/01/09 09:17:31;;;;;;;7.47;6.13;;;;;;;2.93;73.75;94694.84;4192225;28;20060;-71
2021/01/09 09:19:37;;;;;;;8.93;6.28;;;;;;;3.00;73.76;94693.44;4192411;28;20044;-70
2021/01/09 09:21:45;;;;;;;7.70;5.95;;;;;;;3.12;73.21;94693.47;4190412;28;20122;-67
2021/01/09 09:23:53;;;;;;;9.48;6.72;;;;;;;3.15;72.96;94693.25;4191183;28;20049;-80
2021/01/09 09:26:30;;;;;;;7.65;6.07;;;;;;;3.13;72.94;94689.97;4192759;28;20052;-69
2021/01/09 09:28:45;;;;;;;9.88;6.93;;;;;;;3.06;73.68;94698.16;4180205;28;20044;-69
2021/01/09 09:30:46;;;;;;;9.68;7.32;;;;;;;3.07;73.54;94711.94;4194379;28;20059;-69
2021/01/09 09:32:48;;;;;;;8.90;6.90;;;;;;;2.92;73.53;94697.53;4191902;28;20075;-67
2021/01/09 09:34:50;;;;;;;10.68;7.90;;;;;;;2.92;73.43;94700.94;4191884;28;20083;-71
2021/01/09 09:36:51;;;;;;;48.90;24.08;;;;;;;2.91;74.01;94703.66;4191148;28;20131;-69
2021/01/09 09:38:52;;;;;;;8.68;6.40;;;;;;;2.87;74.08;94692.69;4194634;28;20446;-71
2021/01/09 09:41:03;;;;;;;8.80;5.63;;;;;;;2.62;73.70;94691.91;4191935;28;20052;-69
2021/01/09 09:43:13;;;;;;;7.00;4.70;;;;;;;2.65;73.55;94698.63;4193206;28;20115;-70
2021/01/09 09:45:16;;;;;;;5.93;4.78;;;;;;;2.67;74.05;94699.34;4194423;28;20048;-72
2021/01/09 09:47:27;;;;;;;7.80;5.80;;;;;;;2.71;74.35;94698.19;4192343;28;20053;-72